sensor_id;sensor_type;location;lat;lon;timestamp;pressure;altitude;pressure_sealevel;temperature
19666;BMP180;9980;51.020;7.772;2022-12-18T00:03:52;98675.00;;;-7.10
19666;BMP180;9980;51.020;7.772;2022-12-18T00:06:20;98657.00;;;-7.20
19666;BMP180;9980;51.020;7.772;2022-12-18T00:08:46;98671.00;;;-7.20
19666;BMP180;9980;51.020;7.772;2022-12-18T00:11:19;98666.00;;;-7.20
19666;BMP180;9980;51.020;7.772;2022-12-18T00:13:47;98666.00;;;-7.20
19666;BMP180;9980;51.020;7.772;2022-12-18T00:16:17;98660.00;;;-7.20
19666;BMP180;9980;51.020;7.772;2022-12-18T00:18:51;98647.00;;;-7.20
19666;BMP180;9980;51.020;7.772;2022-12-18T00:21:19;98658.00;;;-7.20
19666;BMP180;9980;51.020;7.772;2022-12-18T00:23:47;98636.00;;;-7.20
19666;BMP180;9980;51.020;7.772;2022-12-18T00:26:20;98635.00;;;-7.30
19666;BMP180;9980;51.020;7.772;2022-12-18T00:28:49;98661.00;;;-7.30
19666;BMP180;9980;51.020;7.772;2022-12-18T00:31:20;98662.00;;;-7.30
19666;BMP180;9980;51.020;7.772;2022-12-18T00:33:47;98648.00;;;-7.30
19666;BMP180;9980;51.020;7.772;2022-12-18T00:36:22;98652.00;;;-7.30
19666;BMP180;9980;51.020;7.772;2022-12-18T00:38:50;98658.00;;;-7.30
19666;BMP180;9980;51.020;7.772;2022-12-18T00:41:18;98651.00;;;-7.40
19666;BMP180;9980;51.020;7.772;2022-12-18T00:44:06;98675.00;;;-7.40
19666;BMP180;9980;51.020;7.772;2022-12-18T00:46:33;98679.00;;;-7.40
19666;BMP180;9980;51.020;7.772;2022-12-18T00:49:00;98699.00;;;-7.40
19666;BMP180;9980;51.020;7.772;2022-12-18T00:51:26;98666.00;;;-7.40
19666;BMP180;9980;51.020;7.772;2022-12-18T00:53:53;98671.00;;;-7.40
19666;BMP180;9980;51.020;7.772;2022-12-18T00:56:23;98647.00;;;-7.40
19666;BMP180;9980;51.020;7.772;2022-12-18T00:58:49;98669.00;;;-7.40
19666;BMP180;9980;51.020;7.772;2022-12-18T01:01:16;98677.00;;;-7.40
19666;BMP180;9980;51.020;7.772;2022-12-18T01:03:43;98652.00;;;-7.50
19666;BMP180;9980;51.020;7.772;2022-12-18T01:06:13;98649.00;;;-7.50
19666;BMP180;9980;51.020;7.772;2022-12-18T01:08:40;98656.00;;;-7.50
19666;BMP180;9980;51.020;7.772;2022-12-18T01:11:16;98648.00;;;-7.50
19666;BMP180;9980;51.020;7.772;2022-12-18T01:13:43;98658.00;;;-7.50
19666;BMP180;9980;51.020;7.772;2022-12-18T01:16:16;98639.00;;;-7.50
19666;BMP180;9980;51.020;7.772;2022-12-18T01:18:43;98651.00;;;-7.60
19666;BMP180;9980;51.020;7.772;2022-12-18T01:21:12;98645.00;;;-7.60
19666;BMP180;9980;51.020;7.772;2022-12-18T01:23:39;98645.00;;;-7.60
19666;BMP180;9980;51.020;7.772;2022-12-18T01:26:13;98653.00;;;-7.60
19666;BMP180;9980;51.020;7.772;2022-12-18T01:28:40;98621.00;;;-7.60
19666;BMP180;9980;51.020;7.772;2022-12-18T01:31:26;98655.00;;;-7.60
19666;BMP180;9980;51.020;7.772;2022-12-18T01:33:55;98633.00;;;-7.60
19666;BMP180;9980;51.020;7.772;2022-12-18T01:36:28;98628.00;;;-7.60
19666;BMP180;9980;51.020;7.772;2022-12-18T01:38:55;98650.00;;;-7.70
19666;BMP180;9980;51.020;7.772;2022-12-18T01:41:26;98639.00;;;-7.70
19666;BMP180;9980;51.020;7.772;2022-12-18T01:45:21;98641.00;;;-7.70
19666;BMP180;9980;51.020;7.772;2022-12-18T01:48:02;98647.00;;;-7.70
19666;BMP180;9980;51.020;7.772;2022-12-18T01:50:38;98645.00;;;-7.70
19666;BMP180;9980;51.020;7.772;2022-12-18T01:53:19;98637.00;;;-7.70
19666;BMP180;9980;51.020;7.772;2022-12-18T01:55:53;98665.00;;;-7.80
19666;BMP180;9980;51.020;7.772;2022-12-18T02:01:16;98649.00;;;-7.80
19666;BMP180;9980;51.020;7.772;2022-12-18T02:03:44;98656.00;;;-7.80
19666;BMP180;9980;51.020;7.772;2022-12-18T02:06:17;98639.00;;;-7.80
19666;BMP180;9980;51.020;7.772;2022-12-18T02:09:11;98656.00;;;-7.80
19666;BMP180;9980;51.020;7.772;2022-12-18T02:12:00;98641.00;;;-7.80
19666;BMP180;9980;51.020;7.772;2022-12-18T02:14:41;98645.00;;;-7.90
19666;BMP180;9980;51.020;7.772;2022-12-18T02:17:19;98657.00;;;-7.90
19666;BMP180;9980;51.020;7.772;2022-12-18T02:27:12;98665.00;;;-7.90
19666;BMP180;9980;51.020;7.772;2022-12-18T02:29:33;98669.00;;;-8.00
19666;BMP180;9980;51.020;7.772;2022-12-18T02:32:06;98666.00;;;-8.00
19666;BMP180;9980;51.020;7.772;2022-12-18T02:34:38;98669.00;;;-8.00
19666;BMP180;9980;51.020;7.772;2022-12-18T02:37:14;98660.00;;;-8.00
19666;BMP180;9980;51.020;7.772;2022-12-18T02:39:44;98681.00;;;-8.00
19666;BMP180;9980;51.020;7.772;2022-12-18T02:42:13;98663.00;;;-8.00
19666;BMP180;9980;51.020;7.772;2022-12-18T02:44:49;98660.00;;;-8.00
19666;BMP180;9980;51.020;7.772;2022-12-18T02:47:23;98666.00;;;-8.00
19666;BMP180;9980;51.020;7.772;2022-12-18T02:53:24;98661.00;;;-8.10
19666;BMP180;9980;51.020;7.772;2022-12-18T02:56:20;98662.00;;;-8.10
19666;BMP180;9980;51.020;7.772;2022-12-18T02:59:02;98654.00;;;-8.10
19666;BMP180;9980;51.020;7.772;2022-12-18T03:07:11;98639.00;;;-8.10
19666;BMP180;9980;51.020;7.772;2022-12-18T03:09:47;98643.00;;;-8.10
19666;BMP180;9980;51.020;7.772;2022-12-18T03:12:30;98643.00;;;-8.10
19666;BMP180;9980;51.020;7.772;2022-12-18T03:15:16;98645.00;;;-8.20
19666;BMP180;9980;51.020;7.772;2022-12-18T03:17:56;98637.00;;;-8.20
19666;BMP180;9980;51.020;7.772;2022-12-18T03:20:29;98627.00;;;-8.20
19666;BMP180;9980;51.020;7.772;2022-12-18T03:23:08;98621.00;;;-8.20
19666;BMP180;9980;51.020;7.772;2022-12-18T03:25:41;98609.00;;;-8.20
19666;BMP180;9980;51.020;7.772;2022-12-18T03:28:15;98628.00;;;-8.20
19666;BMP180;9980;51.020;7.772;2022-12-18T03:30:45;98618.00;;;-8.20
19666;BMP180;9980;51.020;7.772;2022-12-18T03:33:21;98630.00;;;-8.20
19666;BMP180;9980;51.020;7.772;2022-12-18T03:35:51;98657.00;;;-8.20
19666;BMP180;9980;51.020;7.772;2022-12-18T03:38:18;98637.00;;;-8.20
19666;BMP180;9980;51.020;7.772;2022-12-18T03:44:13;98651.00;;;-8.20
19666;BMP180;9980;51.020;7.772;2022-12-18T03:46:53;98622.00;;;-8.30
19666;BMP180;9980;51.020;7.772;2022-12-18T03:52:58;98619.00;;;-8.30
19666;BMP180;9980;51.020;7.772;2022-12-18T03:55:32;98611.00;;;-8.30
19666;BMP180;9980;51.020;7.772;2022-12-18T03:58:04;98619.00;;;-8.30
19666;BMP180;9980;51.020;7.772;2022-12-18T04:00:43;98607.00;;;-8.30
19666;BMP180;9980;51.020;7.772;2022-12-18T04:03:12;98625.00;;;-8.30
19666;BMP180;9980;51.020;7.772;2022-12-18T04:05:45;98619.00;;;-8.30
19666;BMP180;9980;51.020;7.772;2022-12-18T04:08:14;98608.00;;;-8.30
19666;BMP180;9980;51.020;7.772;2022-12-18T04:10:48;98609.00;;;-8.30
19666;BMP180;9980;51.020;7.772;2022-12-18T04:13:33;98606.00;;;-8.40
19666;BMP180;9980;51.020;7.772;2022-12-18T04:16:02;98592.00;;;-8.30
19666;BMP180;9980;51.020;7.772;2022-12-18T04:18:28;98603.00;;;-8.40
19666;BMP180;9980;51.020;7.772;2022-12-18T04:20:54;98602.00;;;-8.30
19666;BMP180;9980;51.020;7.772;2022-12-18T04:23:22;98596.00;;;-8.30
19666;BMP180;9980;51.020;7.772;2022-12-18T04:25:48;98583.00;;;-8.40
19666;BMP180;9980;51.020;7.772;2022-12-18T04:28:22;98607.00;;;-8.40
19666;BMP180;9980;51.020;7.772;2022-12-18T04:30:49;98599.00;;;-8.40
19666;BMP180;9980;51.020;7.772;2022-12-18T04:33:16;98604.00;;;-8.40
19666;BMP180;9980;51.020;7.772;2022-12-18T04:35:42;98604.00;;;-8.40
19666;BMP180;9980;51.020;7.772;2022-12-18T04:38:09;98599.00;;;-8.40
19666;BMP180;9980;51.020;7.772;2022-12-18T04:40:37;98608.00;;;-8.40
19666;BMP180;9980;51.020;7.772;2022-12-18T04:43:08;98613.00;;;-8.40
19666;BMP180;9980;51.020;7.772;2022-12-18T04:45:35;98619.00;;;-8.40
19666;BMP180;9980;51.020;7.772;2022-12-18T04:48:02;98611.00;;;-8.40
19666;BMP180;9980;51.020;7.772;2022-12-18T04:50:29;98613.00;;;-8.40
19666;BMP180;9980;51.020;7.772;2022-12-18T04:52:56;98613.00;;;-8.40
19666;BMP180;9980;51.020;7.772;2022-12-18T04:55:22;98619.00;;;-8.40
19666;BMP180;9980;51.020;7.772;2022-12-18T04:57:48;98609.00;;;-8.50
19666;BMP180;9980;51.020;7.772;2022-12-18T05:00:15;98602.00;;;-8.40
19666;BMP180;9980;51.020;7.772;2022-12-18T05:02:41;98597.00;;;-8.40
19666;BMP180;9980;51.020;7.772;2022-12-18T05:05:09;98622.00;;;-8.50
19666;BMP180;9980;51.020;7.772;2022-12-18T05:07:35;98632.00;;;-8.50
19666;BMP180;9980;51.020;7.772;2022-12-18T05:10:02;98605.00;;;-8.50
19666;BMP180;9980;51.020;7.772;2022-12-18T05:12:30;98608.00;;;-8.40
19666;BMP180;9980;51.020;7.772;2022-12-18T05:14:56;98592.00;;;-8.50
19666;BMP180;9980;51.020;7.772;2022-12-18T05:17:23;98600.00;;;-8.50
19666;BMP180;9980;51.020;7.772;2022-12-18T05:19:49;98588.00;;;-8.40
19666;BMP180;9980;51.020;7.772;2022-12-18T05:22:15;98597.00;;;-8.50
19666;BMP180;9980;51.020;7.772;2022-12-18T05:24:41;98603.00;;;-8.40
19666;BMP180;9980;51.020;7.772;2022-12-18T05:27:07;98600.00;;;-8.50
19666;BMP180;9980;51.020;7.772;2022-12-18T05:29:33;98604.00;;;-8.40
19666;BMP180;9980;51.020;7.772;2022-12-18T05:31:59;98595.00;;;-8.40
19666;BMP180;9980;51.020;7.772;2022-12-18T05:34:25;98596.00;;;-8.40
19666;BMP180;9980;51.020;7.772;2022-12-18T05:36:52;98595.00;;;-8.40
19666;BMP180;9980;51.020;7.772;2022-12-18T05:39:18;98602.00;;;-8.40
19666;BMP180;9980;51.020;7.772;2022-12-18T05:41:44;98596.00;;;-8.40
19666;BMP180;9980;51.020;7.772;2022-12-18T05:44:10;98587.00;;;-8.40
19666;BMP180;9980;51.020;7.772;2022-12-18T05:46:36;98586.00;;;-8.40
19666;BMP180;9980;51.020;7.772;2022-12-18T05:49:02;98595.00;;;-8.40
19666;BMP180;9980;51.020;7.772;2022-12-18T05:51:28;98595.00;;;-8.40
19666;BMP180;9980;51.020;7.772;2022-12-18T05:53:55;98578.00;;;-8.40
19666;BMP180;9980;51.020;7.772;2022-12-18T05:56:22;98590.00;;;-8.40
19666;BMP180;9980;51.020;7.772;2022-12-18T05:58:53;98585.00;;;-8.40
19666;BMP180;9980;51.020;7.772;2022-12-18T06:01:24;98598.00;;;-8.40
19666;BMP180;9980;51.020;7.772;2022-12-18T06:03:51;98595.00;;;-8.40
19666;BMP180;9980;51.020;7.772;2022-12-18T06:06:19;98595.00;;;-8.30
19666;BMP180;9980;51.020;7.772;2022-12-18T06:08:46;98597.00;;;-8.30
19666;BMP180;9980;51.020;7.772;2022-12-18T06:11:15;98600.00;;;-8.30
19666;BMP180;9980;51.020;7.772;2022-12-18T06:13:42;98595.00;;;-8.20
19666;BMP180;9980;51.020;7.772;2022-12-18T06:16:08;98615.00;;;-8.10
19666;BMP180;9980;51.020;7.772;2022-12-18T06:18:37;98602.00;;;-8.00
19666;BMP180;9980;51.020;7.772;2022-12-18T06:21:04;98602.00;;;-8.00
19666;BMP180;9980;51.020;7.772;2022-12-18T06:23:30;98618.00;;;-7.90
19666;BMP180;9980;51.020;7.772;2022-12-18T06:25:56;98608.00;;;-7.70
19666;BMP180;9980;51.020;7.772;2022-12-18T06:28:22;98625.00;;;-7.60
19666;BMP180;9980;51.020;7.772;2022-12-18T06:30:49;98610.00;;;-7.50
19666;BMP180;9980;51.020;7.772;2022-12-18T06:33:16;98617.00;;;-7.30
19666;BMP180;9980;51.020;7.772;2022-12-18T06:35:42;98609.00;;;-7.10
19666;BMP180;9980;51.020;7.772;2022-12-18T06:38:08;98629.00;;;-6.90
19666;BMP180;9980;51.020;7.772;2022-12-18T06:40:38;98624.00;;;-6.70
19666;BMP180;9980;51.020;7.772;2022-12-18T06:43:05;98638.00;;;-6.40
19666;BMP180;9980;51.020;7.772;2022-12-18T06:45:31;98606.00;;;-6.30
19666;BMP180;9980;51.020;7.772;2022-12-18T06:47:58;98631.00;;;-6.10
19666;BMP180;9980;51.020;7.772;2022-12-18T06:50:24;98617.00;;;-5.90
19666;BMP180;9980;51.020;7.772;2022-12-18T06:52:51;98611.00;;;-5.80
19666;BMP180;9980;51.020;7.772;2022-12-18T06:55:17;98624.00;;;-5.60
19666;BMP180;9980;51.020;7.772;2022-12-18T06:57:43;98614.00;;;-5.50
19666;BMP180;9980;51.020;7.772;2022-12-18T07:00:10;98642.00;;;-5.40
19666;BMP180;9980;51.020;7.772;2022-12-18T07:02:36;98624.00;;;-5.30
19666;BMP180;9980;51.020;7.772;2022-12-18T07:05:03;98636.00;;;-5.20
19666;BMP180;9980;51.020;7.772;2022-12-18T07:07:36;98634.00;;;-5.10
19666;BMP180;9980;51.020;7.772;2022-12-18T07:10:03;98616.00;;;-5.10
19666;BMP180;9980;51.020;7.772;2022-12-18T07:12:29;98607.00;;;-5.00
19666;BMP180;9980;51.020;7.772;2022-12-18T07:14:55;98622.00;;;-5.00
19666;BMP180;9980;51.020;7.772;2022-12-18T07:17:21;98612.00;;;-4.90
19666;BMP180;9980;51.020;7.772;2022-12-18T07:19:47;98633.00;;;-4.80
19666;BMP180;9980;51.020;7.772;2022-12-18T07:22:13;98634.00;;;-4.90
19666;BMP180;9980;51.020;7.772;2022-12-18T07:24:40;98626.00;;;-4.80
19666;BMP180;9980;51.020;7.772;2022-12-18T07:27:06;98631.00;;;-4.70
19666;BMP180;9980;51.020;7.772;2022-12-18T07:29:33;98619.00;;;-4.70
19666;BMP180;9980;51.020;7.772;2022-12-18T07:31:59;98627.00;;;-4.70
19666;BMP180;9980;51.020;7.772;2022-12-18T07:34:26;98619.00;;;-4.60
19666;BMP180;9980;51.020;7.772;2022-12-18T07:36:52;98623.00;;;-4.60
19666;BMP180;9980;51.020;7.772;2022-12-18T07:39:18;98619.00;;;-4.60
19666;BMP180;9980;51.020;7.772;2022-12-18T07:41:44;98622.00;;;-4.60
19666;BMP180;9980;51.020;7.772;2022-12-18T07:44:32;98622.00;;;-4.50
19666;BMP180;9980;51.020;7.772;2022-12-18T07:46:58;98617.00;;;-4.50
19666;BMP180;9980;51.020;7.772;2022-12-18T07:49:24;98618.00;;;-4.40
19666;BMP180;9980;51.020;7.772;2022-12-18T07:51:50;98612.00;;;-4.30
19666;BMP180;9980;51.020;7.772;2022-12-18T07:54:16;98603.00;;;-4.30
19666;BMP180;9980;51.020;7.772;2022-12-18T07:56:42;98602.00;;;-4.10
19666;BMP180;9980;51.020;7.772;2022-12-18T07:59:08;98602.00;;;-4.10
19666;BMP180;9980;51.020;7.772;2022-12-18T08:01:35;98600.00;;;-4.00
19666;BMP180;9980;51.020;7.772;2022-12-18T08:04:01;98597.00;;;-3.90
19666;BMP180;9980;51.020;7.772;2022-12-18T08:06:27;98607.00;;;-3.80
19666;BMP180;9980;51.020;7.772;2022-12-18T08:08:55;98599.00;;;-3.80
19666;BMP180;9980;51.020;7.772;2022-12-18T08:11:24;98611.00;;;-3.70
19666;BMP180;9980;51.020;7.772;2022-12-18T08:13:51;98615.00;;;-3.60
19666;BMP180;9980;51.020;7.772;2022-12-18T08:16:18;98601.00;;;-3.60
19666;BMP180;9980;51.020;7.772;2022-12-18T08:18:45;98616.00;;;-3.50
19666;BMP180;9980;51.020;7.772;2022-12-18T08:21:16;98588.00;;;-3.50
19666;BMP180;9980;51.020;7.772;2022-12-18T08:23:42;98604.00;;;-3.40
19666;BMP180;9980;51.020;7.772;2022-12-18T08:26:11;98618.00;;;-3.40
19666;BMP180;9980;51.020;7.772;2022-12-18T08:28:37;98603.00;;;-3.30
19666;BMP180;9980;51.020;7.772;2022-12-18T08:31:04;98606.00;;;-3.30
19666;BMP180;9980;51.020;7.772;2022-12-18T08:33:31;98592.00;;;-3.30
19666;BMP180;9980;51.020;7.772;2022-12-18T08:35:59;98598.00;;;-3.20
19666;BMP180;9980;51.020;7.772;2022-12-18T08:38:26;98567.00;;;-3.10
19666;BMP180;9980;51.020;7.772;2022-12-18T08:41:06;98574.00;;;-3.10
19666;BMP180;9980;51.020;7.772;2022-12-18T08:43:33;98558.00;;;-3.00
19666;BMP180;9980;51.020;7.772;2022-12-18T08:46:19;98556.00;;;-2.90
19666;BMP180;9980;51.020;7.772;2022-12-18T08:48:46;98554.00;;;-2.80
19666;BMP180;9980;51.020;7.772;2022-12-18T08:51:13;98558.00;;;-2.70
19666;BMP180;9980;51.020;7.772;2022-12-18T08:53:42;98555.00;;;-2.60
19666;BMP180;9980;51.020;7.772;2022-12-18T08:56:08;98564.00;;;-2.50
19666;BMP180;9980;51.020;7.772;2022-12-18T08:58:34;98555.00;;;-2.50
19666;BMP180;9980;51.020;7.772;2022-12-18T09:01:02;98560.00;;;-2.40
19666;BMP180;9980;51.020;7.772;2022-12-18T09:03:29;98569.00;;;-2.40
19666;BMP180;9980;51.020;7.772;2022-12-18T09:05:55;98567.00;;;-2.30
19666;BMP180;9980;51.020;7.772;2022-12-18T09:08:21;98581.00;;;-2.20
19666;BMP180;9980;51.020;7.772;2022-12-18T09:10:49;98571.00;;;-2.20
19666;BMP180;9980;51.020;7.772;2022-12-18T09:13:17;98582.00;;;-2.10
19666;BMP180;9980;51.020;7.772;2022-12-18T09:15:54;98574.00;;;-2.00
19666;BMP180;9980;51.020;7.772;2022-12-18T09:18:23;98573.00;;;-1.90
19666;BMP180;9980;51.020;7.772;2022-12-18T09:20:49;98565.00;;;-1.80
19666;BMP180;9980;51.020;7.772;2022-12-18T09:23:17;98571.00;;;-1.70
19666;BMP180;9980;51.020;7.772;2022-12-18T09:25:43;98571.00;;;-1.60
19666;BMP180;9980;51.020;7.772;2022-12-18T09:28:16;98575.00;;;-1.40
19666;BMP180;9980;51.020;7.772;2022-12-18T09:30:48;98578.00;;;-1.30
19666;BMP180;9980;51.020;7.772;2022-12-18T09:33:16;98562.00;;;-1.10
19666;BMP180;9980;51.020;7.772;2022-12-18T09:35:45;98561.00;;;-1.00
19666;BMP180;9980;51.020;7.772;2022-12-18T09:38:15;98540.00;;;-0.90
19666;BMP180;9980;51.020;7.772;2022-12-18T09:41:13;98538.00;;;-0.80
19666;BMP180;9980;51.020;7.772;2022-12-18T09:43:53;98544.00;;;-0.70
19666;BMP180;9980;51.020;7.772;2022-12-18T09:46:30;98544.00;;;-0.60
19666;BMP180;9980;51.020;7.772;2022-12-18T09:49:04;98565.00;;;-0.50
19666;BMP180;9980;51.020;7.772;2022-12-18T09:51:39;98552.00;;;-0.50
19666;BMP180;9980;51.020;7.772;2022-12-18T09:54:26;98544.00;;;-0.40
19666;BMP180;9980;51.020;7.772;2022-12-18T09:56:55;98556.00;;;-0.30
19666;BMP180;9980;51.020;7.772;2022-12-18T09:59:27;98548.00;;;-0.30
19666;BMP180;9980;51.020;7.772;2022-12-18T10:01:56;98536.00;;;-0.20
19666;BMP180;9980;51.020;7.772;2022-12-18T10:04:24;98536.00;;;-0.10
19666;BMP180;9980;51.020;7.772;2022-12-18T10:07:07;98525.00;;;-0.10
19666;BMP180;9980;51.020;7.772;2022-12-18T10:10:00;98526.00;;;0.00
19666;BMP180;9980;51.020;7.772;2022-12-18T10:16:16;98544.00;;;0.30
19666;BMP180;9980;51.020;7.772;2022-12-18T10:22:10;98537.00;;;0.50
19666;BMP180;9980;51.020;7.772;2022-12-18T10:24:53;98530.00;;;0.60
19666;BMP180;9980;51.020;7.772;2022-12-18T10:27:26;98526.00;;;0.70
19666;BMP180;9980;51.020;7.772;2022-12-18T10:29:53;98516.00;;;0.80
19666;BMP180;9980;51.020;7.772;2022-12-18T10:32:27;98514.00;;;0.90
19666;BMP180;9980;51.020;7.772;2022-12-18T10:34:57;98501.00;;;1.00
19666;BMP180;9980;51.020;7.772;2022-12-18T10:37:29;98497.00;;;1.00
19666;BMP180;9980;51.020;7.772;2022-12-18T10:40:16;98473.00;;;1.10
19666;BMP180;9980;51.020;7.772;2022-12-18T10:43:12;98481.00;;;1.20
19666;BMP180;9980;51.020;7.772;2022-12-18T10:45:38;98477.00;;;1.30
19666;BMP180;9980;51.020;7.772;2022-12-18T10:48:18;98471.00;;;1.40
19666;BMP180;9980;51.020;7.772;2022-12-18T10:50:49;98464.00;;;1.50
19666;BMP180;9980;51.020;7.772;2022-12-18T10:53:37;98454.00;;;1.60
19666;BMP180;9980;51.020;7.772;2022-12-18T10:56:05;98457.00;;;1.70
19666;BMP180;9980;51.020;7.772;2022-12-18T10:58:36;98462.00;;;1.80
19666;BMP180;9980;51.020;7.772;2022-12-18T11:01:14;98459.00;;;1.90
19666;BMP180;9980;51.020;7.772;2022-12-18T11:03:59;98453.00;;;1.90
19666;BMP180;9980;51.020;7.772;2022-12-18T11:06:29;98452.00;;;2.10
19666;BMP180;9980;51.020;7.772;2022-12-18T11:09:03;98452.00;;;2.20
19666;BMP180;9980;51.020;7.772;2022-12-18T11:11:38;98434.00;;;2.20
19666;BMP180;9980;51.020;7.772;2022-12-18T11:14:15;98435.00;;;2.30
19666;BMP180;9980;51.020;7.772;2022-12-18T11:16:47;98439.00;;;2.40
19666;BMP180;9980;51.020;7.772;2022-12-18T11:19:37;98429.00;;;2.50
19666;BMP180;9980;51.020;7.772;2022-12-18T11:22:21;98425.00;;;2.60
19666;BMP180;9980;51.020;7.772;2022-12-18T11:25:05;98431.00;;;2.70
19666;BMP180;9980;51.020;7.772;2022-12-18T11:28:44;98423.00;;;2.80
19666;BMP180;9980;51.020;7.772;2022-12-18T11:33:57;98409.00;;;3.00
19666;BMP180;9980;51.020;7.772;2022-12-18T11:36:47;98413.00;;;3.00
19666;BMP180;9980;51.020;7.772;2022-12-18T11:39:37;98407.00;;;3.10
19666;BMP180;9980;51.020;7.772;2022-12-18T11:42:35;98407.00;;;3.20
19666;BMP180;9980;51.020;7.772;2022-12-18T11:48:04;98439.00;;;3.30
19666;BMP180;9980;51.020;7.772;2022-12-18T11:53:03;98415.00;;;3.50
19666;BMP180;9980;51.020;7.772;2022-12-18T12:01:54;98391.00;;;3.60
19666;BMP180;9980;51.020;7.772;2022-12-18T12:04:56;98393.00;;;3.70
19666;BMP180;9980;51.020;7.772;2022-12-18T12:10:21;98389.00;;;3.70
19666;BMP180;9980;51.020;7.772;2022-12-18T12:13:20;98377.00;;;3.70
19666;BMP180;9980;51.020;7.772;2022-12-18T12:16:02;98370.00;;;3.80
19666;BMP180;9980;51.020;7.772;2022-12-18T12:21:26;98361.00;;;3.80
19666;BMP180;9980;51.020;7.772;2022-12-18T12:27:10;98376.00;;;3.90
19666;BMP180;9980;51.020;7.772;2022-12-18T12:30:20;98373.00;;;3.90
19666;BMP180;9980;51.020;7.772;2022-12-18T12:36:20;98376.00;;;3.90
19666;BMP180;9980;51.020;7.772;2022-12-18T12:38:57;98385.00;;;3.90
19666;BMP180;9980;51.020;7.772;2022-12-18T12:41:30;98379.00;;;3.90
19666;BMP180;9980;51.020;7.772;2022-12-18T12:44:23;98373.00;;;4.00
19666;BMP180;9980;51.020;7.772;2022-12-18T12:46:52;98373.00;;;4.00
19666;BMP180;9980;51.020;7.772;2022-12-18T12:49:26;98368.00;;;4.00
19666;BMP180;9980;51.020;7.772;2022-12-18T12:52:07;98363.00;;;4.00
19666;BMP180;9980;51.020;7.772;2022-12-18T12:54:37;98352.00;;;4.00
19666;BMP180;9980;51.020;7.772;2022-12-18T12:57:33;98355.00;;;4.00
19666;BMP180;9980;51.020;7.772;2022-12-18T13:00:11;98373.00;;;4.00
19666;BMP180;9980;51.020;7.772;2022-12-18T13:03:11;98363.00;;;3.90
19666;BMP180;9980;51.020;7.772;2022-12-18T13:05:49;98359.00;;;3.90
19666;BMP180;9980;51.020;7.772;2022-12-18T13:08:28;98359.00;;;3.80
19666;BMP180;9980;51.020;7.772;2022-12-18T13:11:00;98352.00;;;3.80
19666;BMP180;9980;51.020;7.772;2022-12-18T13:13:55;98360.00;;;3.80
19666;BMP180;9980;51.020;7.772;2022-12-18T13:16:26;98357.00;;;3.70
19666;BMP180;9980;51.020;7.772;2022-12-18T13:18:56;98354.00;;;3.70
19666;BMP180;9980;51.020;7.772;2022-12-18T13:21:31;98368.00;;;3.70
19666;BMP180;9980;51.020;7.772;2022-12-18T13:24:35;98361.00;;;3.60
19666;BMP180;9980;51.020;7.772;2022-12-18T13:36:09;98375.00;;;3.40
19666;BMP180;9980;51.020;7.772;2022-12-18T13:38:38;98350.00;;;3.30
19666;BMP180;9980;51.020;7.772;2022-12-18T13:41:26;98374.00;;;3.30
19666;BMP180;9980;51.020;7.772;2022-12-18T13:43:55;98361.00;;;3.20
19666;BMP180;9980;51.020;7.772;2022-12-18T13:46:47;98373.00;;;3.10
19666;BMP180;9980;51.020;7.772;2022-12-18T13:51:47;98375.00;;;3.10
19666;BMP180;9980;51.020;7.772;2022-12-18T13:54:37;98382.00;;;3.00
19666;BMP180;9980;51.020;7.772;2022-12-18T13:57:25;98377.00;;;3.00
19666;BMP180;9980;51.020;7.772;2022-12-18T13:59:52;98368.00;;;2.90
19666;BMP180;9980;51.020;7.772;2022-12-18T14:02:23;98367.00;;;2.90
19666;BMP180;9980;51.020;7.772;2022-12-18T14:04:51;98372.00;;;2.90
19666;BMP180;9980;51.020;7.772;2022-12-18T14:07:28;98371.00;;;2.90
19666;BMP180;9980;51.020;7.772;2022-12-18T14:10:15;98367.00;;;2.80
19666;BMP180;9980;51.020;7.772;2022-12-18T14:13:09;98386.00;;;2.80
19666;BMP180;9980;51.020;7.772;2022-12-18T14:15:42;98362.00;;;2.70
19666;BMP180;9980;51.020;7.772;2022-12-18T14:18:24;98360.00;;;2.70
19666;BMP180;9980;51.020;7.772;2022-12-18T14:20:55;98362.00;;;2.70
19666;BMP180;9980;51.020;7.772;2022-12-18T14:23:39;98357.00;;;2.60
19666;BMP180;9980;51.020;7.772;2022-12-18T14:26:29;98359.00;;;2.60
19666;BMP180;9980;51.020;7.772;2022-12-18T14:28:59;98354.00;;;2.60
19666;BMP180;9980;51.020;7.772;2022-12-18T14:31:31;98356.00;;;2.50
19666;BMP180;9980;51.020;7.772;2022-12-18T14:33:57;98344.00;;;2.50
19666;BMP180;9980;51.020;7.772;2022-12-18T14:36:27;98353.00;;;2.50
19666;BMP180;9980;51.020;7.772;2022-12-18T14:38:58;98349.00;;;2.40
19666;BMP180;9980;51.020;7.772;2022-12-18T14:41:26;98349.00;;;2.40
19666;BMP180;9980;51.020;7.772;2022-12-18T14:43:54;98368.00;;;2.30
19666;BMP180;9980;51.020;7.772;2022-12-18T14:46:34;98349.00;;;2.30
19666;BMP180;9980;51.020;7.772;2022-12-18T14:49:27;98337.00;;;2.20
19666;BMP180;9980;51.020;7.772;2022-12-18T14:52:00;98333.00;;;2.20
19666;BMP180;9980;51.020;7.772;2022-12-18T14:54:29;98311.00;;;2.10
19666;BMP180;9980;51.020;7.772;2022-12-18T14:57:25;98323.00;;;2.10
19666;BMP180;9980;51.020;7.772;2022-12-18T14:59:52;98340.00;;;2.00
19666;BMP180;9980;51.020;7.772;2022-12-18T15:02:26;98317.00;;;2.00
19666;BMP180;9980;51.020;7.772;2022-12-18T15:05:17;98311.00;;;1.90
19666;BMP180;9980;51.020;7.772;2022-12-18T15:07:50;98319.00;;;1.90
19666;BMP180;9980;51.020;7.772;2022-12-18T15:10:30;98309.00;;;1.90
19666;BMP180;9980;51.020;7.772;2022-12-18T15:20:47;98316.00;;;1.70
19666;BMP180;9980;51.020;7.772;2022-12-18T15:23:34;98301.00;;;1.70
19666;BMP180;9980;51.020;7.772;2022-12-18T15:26:07;98294.00;;;1.60
19666;BMP180;9980;51.020;7.772;2022-12-18T15:28:49;98299.00;;;1.60
19666;BMP180;9980;51.020;7.772;2022-12-18T15:36:26;98295.00;;;1.50
19666;BMP180;9980;51.020;7.772;2022-12-18T15:38:55;98288.00;;;1.50
19666;BMP180;9980;51.020;7.772;2022-12-18T15:41:33;98288.00;;;1.50
19666;BMP180;9980;51.020;7.772;2022-12-18T15:44:01;98274.00;;;1.50
19666;BMP180;9980;51.020;7.772;2022-12-18T15:46:29;98262.00;;;1.40
19666;BMP180;9980;51.020;7.772;2022-12-18T15:48:57;98289.00;;;1.40
19666;BMP180;9980;51.020;7.772;2022-12-18T15:51:36;98261.00;;;1.40
19666;BMP180;9980;51.020;7.772;2022-12-18T15:54:08;98284.00;;;1.40
19666;BMP180;9980;51.020;7.772;2022-12-18T15:56:37;98270.00;;;1.40
19666;BMP180;9980;51.020;7.772;2022-12-18T15:59:23;98287.00;;;1.40
19666;BMP180;9980;51.020;7.772;2022-12-18T16:01:51;98287.00;;;1.30
19666;BMP180;9980;51.020;7.772;2022-12-18T16:04:21;98290.00;;;1.30
19666;BMP180;9980;51.020;7.772;2022-12-18T16:06:48;98288.00;;;1.30
19666;BMP180;9980;51.020;7.772;2022-12-18T16:09:35;98288.00;;;1.30
19666;BMP180;9980;51.020;7.772;2022-12-18T16:12:02;98295.00;;;1.20
19666;BMP180;9980;51.020;7.772;2022-12-18T16:14:30;98286.00;;;1.20
19666;BMP180;9980;51.020;7.772;2022-12-18T16:17:02;98285.00;;;1.20
19666;BMP180;9980;51.020;7.772;2022-12-18T16:19:29;98305.00;;;1.20
19666;BMP180;9980;51.020;7.772;2022-12-18T16:21:58;98280.00;;;1.10
19666;BMP180;9980;51.020;7.772;2022-12-18T16:24:28;98285.00;;;1.20
19666;BMP180;9980;51.020;7.772;2022-12-18T16:26:58;98282.00;;;1.10